Time;durP1;ratioP1;P1;durP2;ratioP2;P2;SDS_P1;SDS_P2;PMS_P1;PMS_P2;Temp;Humidity;BMP_temperature;BMP_pressure;BME280_temperature;BME280_humidity;BME280_pressure;Samples;Min_cycle;Max_cycle;Signal;HPM_P1;HPM_P2
2022/07/06 00:01:29;;;;;;;5.20;2.47;;;14.50;99.90;;;;;;4992157;28;20189;-57
2022/07/06 00:03:55;;;;;;;4.70;1.70;;;14.50;99.90;;;;;;4991964;28;20208;-57
2022/07/06 00:06:23;;;;;;;2.33;1.70;;;14.50;99.90;;;;;;4991799;28;20495;-57
2022/07/06 00:08:49;;;;;;;11.40;2.80;;;14.50;99.90;;;;;;4990623;28;20424;-57
2022/07/06 00:11:15;;;;;;;3.07;1.90;;;14.60;99.90;;;;;;4990385;28;20441;-55
2022/07/06 00:13:41;;;;;;;4.67;1.60;;;14.60;99.90;;;;;;4990350;28;20540;-57
2022/07/06 00:16:07;;;;;;;4.50;2.60;;;14.60;99.90;;;;;;4990924;28;20196;-56
2022/07/06 00:18:33;;;;;;;8.07;2.73;;;14.60;99.90;;;;;;4991547;28;20435;-57
2022/07/06 00:20:59;;;;;;;6.20;2.67;;;14.60;99.90;;;;;;4991529;28;21004;-56
2022/07/06 00:23:24;;;;;;;5.77;1.80;;;14.60;99.90;;;;;;4990412;28;20208;-54
2022/07/06 00:25:50;;;;;;;4.90;2.03;;;14.60;99.90;;;;;;4990826;28;20204;-56
2022/07/06 00:28:15;;;;;;;5.77;1.90;;;14.60;99.90;;;;;;4991327;28;20184;-55
2022/07/06 00:30:41;;;;;;;4.50;1.67;;;14.60;99.90;;;;;;4990845;28;20188;-56
2022/07/06 00:33:07;;;;;;;7.83;2.33;;;14.60;99.90;;;;;;4988925;28;20302;-57
2022/07/06 00:35:33;;;;;;;13.50;7.10;;;14.60;99.90;;;;;;4981468;28;20577;-57
2022/07/06 00:37:59;;;;;;;7.60;2.10;;;14.60;99.90;;;;;;4991460;28;20263;-55
2022/07/06 00:40:25;;;;;;;3.43;1.70;;;14.60;99.90;;;;;;4991332;28;20555;-56
2022/07/06 00:42:50;;;;;;;5.13;1.90;;;14.60;99.90;;;;;;4990329;28;20216;-57
2022/07/06 00:45:17;;;;;;;4.60;1.90;;;14.50;99.90;;;;;;4990570;28;20187;-56
2022/07/06 00:47:43;;;;;;;5.53;2.00;;;14.50;99.90;;;;;;4991742;28;20172;-57
2022/07/06 00:50:13;;;;;;;5.43;2.00;;;14.50;99.90;;;;;;4991190;28;20430;-56
2022/07/06 00:52:47;;;;;;;8.03;2.20;;;14.50;99.90;;;;;;4990844;28;20924;-56
2022/07/06 00:55:14;;;;;;;4.13;1.80;;;14.50;99.90;;;;;;4971633;28;20931;-57
2022/07/06 00:57:40;;;;;;;4.63;1.70;;;14.40;99.90;;;;;;4973314;28;20511;-57
2022/07/06 01:00:09;;;;;;;3.73;1.97;;;14.50;99.90;;;;;;4973385;28;20405;-56
2022/07/06 01:02:36;;;;;;;9.97;2.10;;;14.50;99.90;;;;;;4968540;28;20475;-56
2022/07/06 01:05:04;;;;;;;4.93;2.13;;;14.50;99.90;;;;;;4968844;28;20441;-57
2022/07/06 01:07:30;;;;;;;6.80;2.77;;;14.50;99.90;;;;;;4970844;28;20459;-56
2022/07/06 01:09:56;;;;;;;4.63;2.00;;;14.50;99.90;;;;;;4972132;28;20432;-57
2022/07/06 01:12:22;;;;;;;2.63;2.00;;;14.50;99.90;;;;;;4972263;28;21170;-57
2022/07/06 01:14:48;;;;;;;4.40;2.20;;;14.60;99.90;;;;;;4963509;28;20213;-58
2022/07/06 01:17:15;;;;;;;5.40;2.20;;;14.50;99.90;;;;;;4972887;28;20424;-56
2022/07/06 01:19:41;;;;;;;3.30;2.07;;;14.50;99.90;;;;;;4971906;28;20505;-55
2022/07/06 01:22:08;;;;;;;7.73;2.00;;;14.50;99.90;;;;;;4975734;28;20480;-57
2022/07/06 01:24:38;;;;;;;5.10;2.07;;;14.40;99.90;;;;;;4975887;28;20192;-56
2022/07/06 01:27:04;;;;;;;3.83;2.13;;;14.40;99.90;;;;;;4976325;28;20432;-56
2022/07/06 01:29:30;;;;;;;5.93;2.00;;;14.40;99.90;;;;;;4976119;28;20482;-57
2022/07/06 01:31:55;;;;;;;4.53;1.73;;;14.40;99.90;;;;;;4976318;28;20518;-57
2022/07/06 01:34:21;;;;;;;4.77;2.17;;;14.40;99.90;;;;;;4973645;28;20199;-54
2022/07/06 01:36:47;;;;;;;5.80;2.10;;;14.30;99.90;;;;;;4976148;28;20243;-57
2022/07/06 01:39:12;;;;;;;4.60;1.87;;;14.30;99.90;;;;;;4975171;28;20193;-57
2022/07/06 01:41:39;;;;;;;7.30;2.37;;;14.30;99.90;;;;;;4975359;28;20169;-56
2022/07/06 01:44:05;;;;;;;5.50;2.30;;;14.30;99.90;;;;;;4975601;28;20571;-57
2022/07/06 01:46:31;;;;;;;5.77;2.20;;;14.20;99.90;;;;;;4976426;28;20436;-56
2022/07/06 01:48:57;;;;;;;5.63;2.10;;;14.20;99.90;;;;;;4974904;28;20177;-57
2022/07/06 01:51:24;;;;;;;5.63;2.23;;;14.20;99.90;;;;;;4973680;28;20489;-56
2022/07/06 01:53:50;;;;;;;4.30;2.00;;;14.20;99.90;;;;;;4984099;28;20502;-57
2022/07/06 01:56:17;;;;;;;6.53;2.20;;;14.20;99.90;;;;;;4993433;28;20431;-57
2022/07/06 01:58:43;;;;;;;12.87;2.50;;;14.20;99.90;;;;;;4979646;28;20452;-56
2022/07/06 02:01:19;;;;;;;12.90;2.43;;;14.20;99.90;;;;;;4991922;28;20454;-57
2022/07/06 02:03:45;;;;;;;8.13;2.20;;;14.20;99.90;;;;;;4974913;28;20200;-57
2022/07/06 02:06:14;;;;;;;2.40;2.10;;;14.20;99.90;;;;;;4992103;28;20439;-57
2022/07/06 02:08:41;;;;;;;3.90;1.97;;;14.20;99.90;;;;;;4974499;28;20432;-57
2022/07/06 02:11:08;;;;;;;5.17;2.33;;;14.20;99.90;;;;;;4992447;28;20447;-56
2022/07/06 02:13:34;;;;;;;8.67;2.23;;;14.20;99.90;;;;;;4992626;28;20443;-57
2022/07/06 02:15:59;;;;;;;5.10;2.40;;;14.20;99.90;;;;;;4992947;28;20470;-57
2022/07/06 02:18:25;;;;;;;5.80;2.13;;;14.20;99.90;;;;;;4993340;28;21018;-57
2022/07/06 02:20:51;;;;;;;6.60;2.33;;;14.20;99.90;;;;;;4993013;28;20645;-57
2022/07/06 02:23:16;;;;;;;10.27;2.20;;;14.20;99.90;;;;;;4992555;28;20231;-57
2022/07/06 02:25:42;;;;;;;3.00;1.97;;;14.20;99.90;;;;;;4974275;28;20514;-55
2022/07/06 02:28:08;;;;;;;7.20;1.93;;;14.30;99.90;;;;;;4992499;28;20196;-57
2022/07/06 02:30:33;;;;;;;3.73;1.90;;;14.30;99.90;;;;;;4993709;28;20188;-56
2022/07/06 02:32:59;;;;;;;4.80;2.10;;;14.20;99.90;;;;;;4991470;28;20742;-55
2022/07/06 02:35:25;;;;;;;5.90;2.30;;;14.20;99.90;;;;;;4992900;28;20291;-56
2022/07/06 02:37:50;;;;;;;4.60;2.40;;;14.20;99.90;;;;;;4992114;28;20976;-56
2022/07/06 02:40:16;;;;;;;8.70;2.10;;;14.20;99.90;;;;;;4975928;28;20192;-57
2022/07/06 02:42:42;;;;;;;8.30;2.50;;;14.20;99.90;;;;;;4992789;28;20291;-57
2022/07/06 02:45:08;;;;;;;5.80;2.47;;;14.10;99.90;;;;;;4992719;28;20201;-57
2022/07/06 02:47:34;;;;;;;5.33;2.30;;;14.00;99.90;;;;;;4985242;28;20184;-57
2022/07/06 02:49:59;;;;;;;4.20;2.23;;;13.90;1.00;;;;;;4992781;28;20794;-57
2022/07/06 02:52:25;;;;;;;10.33;2.20;;;13.90;1.00;;;;;;4992560;28;20200;-57
2022/07/06 02:54:51;;;;;;;4.40;1.90;;;13.80;1.00;;;;;;4992404;28;20236;-57
2022/07/06 02:57:16;;;;;;;7.93;2.60;;;13.80;1.00;;;;;;4993156;28;20258;-56
2022/07/06 02:59:42;;;;;;;3.90;2.20;;;13.80;1.00;;;;;;4973334;28;20678;-56
2022/07/06 03:02:08;;;;;;;8.20;2.40;;;13.70;1.00;;;;;;4993056;28;20910;-56
2022/07/06 03:04:34;;;;;;;4.83;2.63;;;13.70;1.00;;;;;;4985750;28;20184;-57
2022/07/06 03:07:00;;;;;;;3.27;2.90;;;13.70;1.00;;;;;;4992854;28;20267;-57
2022/07/06 03:09:26;;;;;;;7.43;3.20;;;13.70;1.00;;;;;;4974900;28;20578;-56
2022/07/06 03:11:52;;;;;;;3.43;3.13;;;13.70;1.00;;;;;;4992992;28;20499;-56
2022/07/06 03:14:18;;;;;;;10.30;3.30;;;13.70;1.00;;;;;;4991003;28;20435;-57
2022/07/06 03:16:43;;;;;;;6.87;2.93;;;13.70;1.00;;;;;;4992063;28;20315;-57
2022/07/06 03:19:09;;;;;;;7.63;2.80;;;13.70;1.00;;;;;;4991190;28;20185;-56
2022/07/06 03:21:34;;;;;;;8.77;2.90;;;13.70;1.00;;;;;;4978150;28;20176;-57
2022/07/06 03:24:00;;;;;;;4.83;2.73;;;13.80;1.00;;;;;;4992399;28;20215;-56
2022/07/06 03:26:26;;;;;;;8.77;3.10;;;13.90;1.00;;;;;;4991034;28;20197;-57
2022/07/06 03:28:51;;;;;;;14.10;2.50;;;13.90;1.00;;;;;;4975171;28;20187;-56
2022/07/06 03:31:17;;;;;;;6.77;2.60;;;14.00;1.00;;;;;;4992705;28;20534;-56
2022/07/06 03:33:43;;;;;;;7.27;2.80;;;13.90;1.00;;;;;;4991160;28;20929;-57
2022/07/06 03:36:08;;;;;;;5.10;2.37;;;13.90;1.00;;;;;;4991332;28;20188;-56
2022/07/06 03:38:35;;;;;;;7.30;2.50;;;13.90;1.00;;;;;;4991469;28;20658;-56
2022/07/06 03:41:01;;;;;;;3.93;2.50;;;14.00;1.00;;;;;;4992212;28;20430;-56
2022/07/06 03:43:26;;;;;;;9.10;2.73;;;13.90;1.00;;;;;;4991295;28;20807;-56
2022/07/06 03:45:52;;;;;;;3.63;2.30;;;14.00;1.00;;;;;;4990555;28;20184;-56
2022/07/06 03:48:17;;;;;;;7.30;2.43;;;14.00;1.00;;;;;;4992452;28;20182;-57
2022/07/06 03:50:43;;;;;;;8.57;2.33;;;14.00;1.00;;;;;;4988781;28;20184;-57
2022/07/06 03:53:09;;;;;;;6.50;2.30;;;14.00;1.00;;;;;;4991367;28;20303;-57
2022/07/06 03:55:34;;;;;;;8.60;2.70;;;14.00;1.00;;;;;;4990229;28;20287;-57
2022/07/06 03:58:00;;;;;;;5.23;2.23;;;14.00;1.00;;;;;;4992243;28;20185;-56
2022/07/06 04:00:26;;;;;;;11.13;2.03;;;14.00;1.00;;;;;;4990603;28;20208;-57
2022/07/06 04:02:51;;;;;;;3.70;2.00;;;14.00;1.00;;;;;;4990830;28;20999;-56
2022/07/06 04:05:20;;;;;;;6.93;2.60;;;14.00;1.00;;;;;;4990018;28;20278;-56
2022/07/06 04:07:48;;;;;;;5.10;1.97;;;13.90;1.00;;;;;;4991781;28;20160;-56
2022/07/06 04:10:15;;;;;;;5.37;1.90;;;13.90;1.00;;;;;;4991042;28;20431;-57
2022/07/06 04:12:44;;;;;;;3.20;1.60;;;13.90;99.90;;;;;;4989968;28;20443;-56
2022/07/06 04:15:11;;;;;;;5.60;1.90;;;13.90;99.90;;;;;;4971925;28;20452;-56
2022/07/06 04:17:53;;;;;;;5.00;2.23;;;13.90;99.90;;;;;;4991999;28;20416;-54
2022/07/06 04:20:22;;;;;;;7.13;2.03;;;13.90;99.90;;;;;;4990936;28;20917;-56
2022/07/06 04:22:49;;;;;;;3.40;1.97;;;13.90;99.90;;;;;;4991423;28;20950;-57
2022/07/06 04:25:14;;;;;;;6.67;2.10;;;14.00;99.90;;;;;;4988921;28;20452;-56
2022/07/06 04:27:41;;;;;;;2.87;2.07;;;14.00;99.90;;;;;;4991466;28;20605;-52
2022/07/06 04:30:08;;;;;;;8.77;2.33;;;14.10;99.90;;;;;;4973395;28;20196;-52
2022/07/06 04:32:35;;;;;;;5.00;2.20;;;14.10;99.90;;;;;;4991453;28;20399;-52
2022/07/06 04:35:03;;;;;;;9.60;2.40;;;14.10;99.90;;;;;;4989167;28;20439;-56
2022/07/06 04:37:28;;;;;;;3.33;1.77;;;14.20;99.90;;;;;;4990439;28;20426;-56
2022/07/06 04:39:54;;;;;;;4.70;1.93;;;14.20;99.90;;;;;;4966069;28;20444;-56
2022/07/06 04:42:19;;;;;;;9.30;2.10;;;14.20;99.90;;;;;;4972134;28;20204;-61
2022/07/06 04:44:45;;;;;;;7.43;2.20;;;14.20;99.90;;;;;;4979103;28;20184;-57
2022/07/06 04:47:12;;;;;;;2.00;1.70;;;14.30;99.90;;;;;;4971947;28;20542;-56
2022/07/06 04:49:37;;;;;;;5.17;1.97;;;14.30;99.90;;;;;;4985371;28;20651;-57
2022/07/06 04:52:03;;;;;;;2.83;1.53;;;14.40;99.90;;;;;;4990354;28;20455;-57
2022/07/06 04:54:29;;;;;;;10.03;1.87;;;14.40;99.90;;;;;;4990033;28;20590;-56
2022/07/06 04:56:54;;;;;;;6.60;1.93;;;14.50;99.90;;;;;;4990116;28;20451;-56
2022/07/06 04:59:20;;;;;;;11.43;2.00;;;14.50;99.90;;;;;;4989014;28;20548;-57
2022/07/06 05:01:46;;;;;;;4.47;1.73;;;14.60;99.90;;;;;;4990450;28;20199;-57
2022/07/06 05:04:11;;;;;;;9.43;1.90;;;14.60;99.90;;;;;;4973395;28;20227;-57
2022/07/06 05:06:37;;;;;;;4.60;1.60;;;14.60;99.90;;;;;;4990790;28;20299;-55
2022/07/06 05:09:03;;;;;;;6.30;1.83;;;14.70;99.90;;;;;;4988974;28;20642;-57
2022/07/06 05:11:28;;;;;;;11.70;2.40;;;14.70;99.90;;;;;;4989077;28;20203;-56
2022/07/06 05:13:54;;;;;;;6.07;1.80;;;14.70;99.90;;;;;;4990185;28;20721;-57
2022/07/06 05:16:20;;;;;;;4.60;2.10;;;14.70;99.90;;;;;;4989164;28;20199;-58
2022/07/06 05:18:46;;;;;;;3.07;1.93;;;14.70;99.90;;;;;;4989075;28;20192;-55
2022/07/06 05:21:12;;;;;;;4.00;1.97;;;14.80;99.90;;;;;;4990154;28;20447;-58
2022/07/06 05:23:37;;;;;;;7.77;2.03;;;14.80;99.90;;;;;;4989691;28;20682;-56
2022/07/06 05:26:03;;;;;;;9.30;2.73;;;14.90;99.90;;;;;;4973410;28;20187;-57
2022/07/06 05:28:29;;;;;;;10.73;2.27;;;15.00;99.90;;;;;;4962156;28;20188;-56
2022/07/06 05:30:54;;;;;;;10.23;2.30;;;15.10;99.90;;;;;;4991045;28;20516;-57
2022/07/06 05:33:20;;;;;;;5.90;1.70;;;15.10;99.90;;;;;;4989116;28;20279;-56
2022/07/06 05:35:46;;;;;;;10.13;2.07;;;15.10;99.90;;;;;;4990621;28;20762;-56
2022/07/06 05:38:11;;;;;;;5.90;2.37;;;15.10;99.90;;;;;;4990045;28;20258;-56
2022/07/06 05:40:37;;;;;;;6.70;2.67;;;15.20;99.90;;;;;;4989342;28;20192;-57
2022/07/06 05:43:03;;;;;;;4.30;2.03;;;15.20;99.90;;;;;;4990038;28;20277;-57
2022/07/06 05:45:28;;;;;;;5.83;2.13;;;15.30;99.90;;;;;;4990669;28;20274;-57
2022/07/06 05:50:38;;;;;;;4.70;2.40;;;15.30;99.90;;;;;;4987959;28;20261;-57
2022/07/06 05:53:05;;;;;;;7.47;2.10;;;15.40;99.90;;;;;;4990723;28;20427;-56
2022/07/06 05:55:31;;;;;;;2.10;1.90;;;15.40;99.90;;;;;;4991379;28;20216;-56
2022/07/06 05:57:56;;;;;;;5.43;2.20;;;15.40;99.90;;;;;;4991099;28;20455;-57
2022/07/06 06:00:24;;;;;;;5.20;1.80;;;15.40;99.90;;;;;;4991414;28;20738;-57
2022/07/06 06:02:50;;;;;;;9.23;1.97;;;15.40;99.90;;;;;;4988303;28;20239;-57
2022/07/06 06:05:16;;;;;;;11.13;1.80;;;15.30;99.90;;;;;;4992228;28;20435;-57
2022/07/06 06:07:43;;;;;;;7.93;1.43;;;15.20;99.90;;;;;;4990111;28;20432;-57
2022/07/06 06:10:11;;;;;;;5.03;1.60;;;15.20;99.90;;;;;;4975063;28;20439;-57
2022/07/06 06:12:38;;;;;;;4.97;1.60;;;15.20;99.90;;;;;;4991998;28;20529;-57
2022/07/06 06:15:04;;;;;;;5.27;1.80;;;15.10;99.90;;;;;;4994514;28;20452;-57
2022/07/06 06:17:30;;;;;;;3.20;1.40;;;14.90;99.90;;;;;;4995748;28;20555;-57
2022/07/06 06:19:57;;;;;;;7.80;1.90;;;14.70;99.90;;;;;;4993677;28;20439;-57
2022/07/06 06:22:23;;;;;;;2.80;1.57;;;14.60;99.90;;;;;;4995616;28;20500;-57
2022/07/06 06:24:48;;;;;;;6.13;2.17;;;14.60;99.90;;;;;;4994655;28;20471;-56
2022/07/06 06:27:14;;;;;;;7.67;2.10;;;14.60;99.90;;;;;;4995138;28;20200;-57
2022/07/06 06:29:41;;;;;;;3.83;1.77;;;14.60;1.00;;;;;;4994238;28;20196;-57
2022/07/06 06:32:07;;;;;;;6.83;1.80;;;14.70;1.00;;;;;;4995513;28;20208;-57
2022/07/06 06:34:32;;;;;;;9.90;1.90;;;14.70;1.00;;;;;;4995293;28;20416;-57
2022/07/06 06:36:58;;;;;;;8.40;1.70;;;14.80;99.90;;;;;;4995136;28;20451;-57
2022/07/06 06:39:24;;;;;;;4.10;1.57;;;14.80;99.90;;;;;;4994028;28;20914;-57
2022/07/06 06:41:49;;;;;;;2.37;1.30;;;14.90;99.90;;;;;;4994202;28;20188;-57
2022/07/06 06:44:15;;;;;;;4.60;2.00;;;15.00;99.90;;;;;;4994216;28;20215;-55
2022/07/06 06:46:41;;;;;;;8.97;1.83;;;15.10;99.90;;;;;;4994822;28;20651;-57
2022/07/06 06:49:07;;;;;;;4.80;1.60;;;15.20;99.90;;;;;;4993352;28;20585;-58
2022/07/06 06:51:33;;;;;;;5.70;1.83;;;15.30;99.90;;;;;;4994310;28;20435;-57
2022/07/06 06:53:59;;;;;;;7.13;1.70;;;15.40;99.90;;;;;;4992326;28;20270;-56
2022/07/06 06:56:24;;;;;;;8.37;2.17;;;15.50;99.90;;;;;;4993664;28;20412;-55
2022/07/06 06:58:50;;;;;;;8.87;2.20;;;15.60;99.90;;;;;;4992618;28;20361;-57
2022/07/06 07:01:16;;;;;;;3.80;1.83;;;15.60;99.90;;;;;;4993069;28;20192;-57
2022/07/06 07:03:41;;;;;;;7.37;1.93;;;15.60;99.90;;;;;;4993072;28;20222;-55
2022/07/06 07:06:07;;;;;;;12.60;2.30;;;15.70;99.90;;;;;;4991319;28;20196;-57
2022/07/06 07:08:33;;;;;;;5.53;1.80;;;15.70;99.90;;;;;;4992851;28;20626;-57
2022/07/06 07:10:58;;;;;;;7.10;2.17;;;15.80;99.90;;;;;;4992344;28;20186;-57
2022/07/06 07:13:24;;;;;;;3.87;1.80;;;16.00;99.90;;;;;;4985614;28;20193;-57
2022/07/06 07:15:50;;;;;;;8.13;1.73;;;16.20;99.90;;;;;;5003265;28;20717;-57
2022/07/06 07:18:16;;;;;;;3.80;1.53;;;16.20;99.90;;;;;;5003127;28;20416;-57
2022/07/06 07:20:41;;;;;;;4.60;1.63;;;16.40;99.90;;;;;;4979350;28;20420;-57
2022/07/06 07:23:07;;;;;;;5.70;1.97;;;16.50;99.90;;;;;;4984050;28;20220;-55
2022/07/06 07:25:33;;;;;;;10.00;1.60;;;16.50;99.90;;;;;;4992433;28;20207;-57
2022/07/06 07:27:58;;;;;;;8.73;1.80;;;16.50;99.90;;;;;;4992569;28;20244;-57
2022/07/06 07:30:24;;;;;;;5.73;1.70;;;16.40;99.90;;;;;;4974780;28;20278;-57
2022/07/06 07:32:50;;;;;;;3.43;1.40;;;16.20;99.90;;;;;;4990270;28;20219;-57
2022/07/06 07:35:15;;;;;;;1.93;1.30;;;15.90;99.90;;;;;;4975524;28;20168;-57
2022/07/06 07:37:41;;;;;;;1.47;0.90;;;15.70;99.90;;;;;;4992665;28;20235;-58
2022/07/06 07:40:07;;;;;;;1.63;1.10;;;15.50;99.90;;;;;;4990447;28;21055;-52
2022/07/06 07:42:33;;;;;;;5.40;1.10;;;15.30;99.90;;;;;;4990569;28;20211;-52
2022/07/06 07:44:59;;;;;;;8.97;1.20;;;15.30;99.90;;;;;;4989834;28;20435;-52
2022/07/06 07:47:24;;;;;;;6.73;1.00;;;15.20;99.90;;;;;;4974907;28;20567;-52
2022/07/06 07:49:50;;;;;;;2.80;1.40;;;15.20;99.90;;;;;;4974889;28;20251;-52
2022/07/06 07:52:16;;;;;;;2.90;1.50;;;15.10;99.90;;;;;;4992143;28;20189;-52
2022/07/06 07:54:42;;;;;;;3.80;1.20;;;15.00;99.90;;;;;;4991008;28;20602;-53
2022/07/06 07:57:07;;;;;;;3.17;1.10;;;15.00;99.90;;;;;;4991920;28;20177;-52
2022/07/06 07:59:33;;;;;;;3.60;1.30;;;15.00;99.90;;;;;;4991314;28;20247;-52
2022/07/06 08:01:59;;;;;;;1.87;1.10;;;15.10;99.90;;;;;;4996217;28;20233;-57
2022/07/06 08:04:24;;;;;;;4.13;1.57;;;15.30;99.90;;;;;;5008973;28;20211;-57
2022/07/06 08:06:50;;;;;;;8.13;1.67;;;15.50;99.90;;;;;;5011643;28;20167;-57
2022/07/06 08:09:17;;;;;;;3.77;1.30;;;15.90;99.90;;;;;;4993099;28;20181;-57
2022/07/06 08:11:43;;;;;;;2.80;1.67;;;16.40;99.90;;;;;;4973857;28;20193;-57
2022/07/06 08:14:09;;;;;;;2.43;1.20;;;16.90;99.90;;;;;;4973652;28;20502;-57
2022/07/06 08:16:35;;;;;;;2.90;1.10;;;16.90;99.90;;;;;;4991688;28;20705;-57
2022/07/06 08:19:01;;;;;;;3.30;1.07;;;16.90;99.90;;;;;;4967945;28;20193;-59
2022/07/06 08:21:27;;;;;;;3.57;2.17;;;16.60;99.90;;;;;;5009352;28;20548;-56
2022/07/06 08:23:54;;;;;;;2.57;1.30;;;16.40;99.90;;;;;;5000704;28;20227;-58
2022/07/06 08:26:21;;;;;;;4.77;1.30;;;16.00;99.90;;;;;;4973262;28;20213;-57
2022/07/06 08:28:47;;;;;;;2.40;1.27;;;15.90;99.90;;;;;;4983467;28;20870;-58
2022/07/06 08:31:13;;;;;;;4.70;1.30;;;15.70;99.90;;;;;;4972155;28;20405;-58
2022/07/06 08:33:39;;;;;;;3.70;1.23;;;15.50;99.90;;;;;;4991014;28;20180;-57
2022/07/06 08:36:05;;;;;;;4.20;1.50;;;15.40;99.90;;;;;;4972638;28;20227;-56
2022/07/06 08:38:30;;;;;;;2.97;1.53;;;15.40;99.90;;;;;;4991338;28;20622;-57
2022/07/06 08:40:57;;;;;;;2.37;1.40;;;15.50;99.90;;;;;;4991063;28;20423;-57
2022/07/06 08:43:23;;;;;;;3.13;1.27;;;15.60;99.90;;;;;;4975069;28;20215;-57
2022/07/06 08:45:52;;;;;;;4.10;1.43;;;15.70;99.90;;;;;;4971852;28;20847;-58
2022/07/06 08:48:19;;;;;;;7.23;1.30;;;15.90;99.90;;;;;;4991041;28;20428;-57
2022/07/06 08:50:45;;;;;;;3.57;1.57;;;16.20;99.90;;;;;;4989499;28;20435;-57
2022/07/06 08:53:10;;;;;;;7.20;1.50;;;16.40;99.90;;;;;;4986140;28;20493;-57
2022/07/06 08:55:36;;;;;;;3.13;1.37;;;16.70;99.90;;;;;;4991138;28;20435;-57
2022/07/06 08:58:04;;;;;;;1.90;1.20;;;16.90;99.90;;;;;;4991202;28;20212;-57
2022/07/06 09:00:31;;;;;;;6.67;1.90;;;17.50;99.90;;;;;;4991159;28;20168;-58
2022/07/06 09:02:58;;;;;;;2.23;1.40;;;17.90;99.90;;;;;;4991127;28;20796;-56
2022/07/06 09:05:24;;;;;;;2.10;1.30;;;18.10;99.90;;;;;;4990675;28;20447;-56
2022/07/06 09:07:50;;;;;;;4.27;1.70;;;18.10;99.90;;;;;;4991022;28;20477;-57
2022/07/06 09:10:19;;;;;;;5.60;2.80;;;18.20;99.90;;;;;;4990930;28;20234;-58
2022/07/06 09:12:45;;;;;;;5.43;1.90;;;18.20;99.90;;;;;;4973647;28;20454;-57
2022/07/06 09:15:11;;;;;;;3.33;1.67;;;18.00;99.90;;;;;;4989931;28;20443;-57
2022/07/06 09:17:41;;;;;;;4.20;1.90;;;17.80;99.90;;;;;;4991189;28;20188;-57
2022/07/06 09:20:08;;;;;;;4.87;1.50;;;17.70;99.90;;;;;;4990120;28;20188;-58
2022/07/06 09:22:34;;;;;;;3.73;1.87;;;17.70;99.90;;;;;;4990611;28;20458;-57
2022/07/06 09:25:12;;;;;;;5.43;1.90;;;17.70;99.90;;;;;;4965350;28;20449;-58
2022/07/06 09:27:39;;;;;;;4.33;3.30;;;17.70;99.90;;;;;;4971428;28;20207;-57
2022/07/06 09:30:06;;;;;;;3.00;1.57;;;18.10;99.90;;;;;;4983596;28;20428;-57
2022/07/06 09:32:41;;;;;;;3.03;1.70;;;18.40;99.90;;;;;;4980879;28;20432;-56
2022/07/06 09:35:08;;;;;;;6.10;1.37;;;18.80;99.90;;;;;;4987432;28;20925;-53
2022/07/06 09:37:33;;;;;;;2.63;1.20;;;19.10;99.90;;;;;;4984079;28;20527;-52
2022/07/06 09:39:59;;;;;;;1.83;1.20;;;19.10;99.90;;;;;;4983297;28;20509;-52
2022/07/06 09:42:26;;;;;;;5.40;1.33;;;19.20;99.90;;;;;;4971354;28;20200;-52
2022/07/06 09:44:53;;;;;;;1.90;1.00;;;19.30;99.90;;;;;;4974248;28;20215;-52
2022/07/06 09:47:19;;;;;;;6.03;1.00;;;19.20;99.90;;;;;;4992724;28;20527;-53
2022/07/06 09:49:45;;;;;;;5.30;1.30;;;19.10;99.90;;;;;;4975743;28;20416;-53
2022/07/06 09:52:12;;;;;;;2.43;0.80;;;19.00;99.90;;;;;;4982433;28;20196;-53
2022/07/06 09:54:41;;;;;;;3.83;1.33;;;19.00;99.90;;;;;;4994185;28;20471;-52
2022/07/06 09:57:07;;;;;;;2.20;1.00;;;19.00;99.90;;;;;;4994571;28;20466;-52
2022/07/06 09:59:35;;;;;;;2.80;1.33;;;19.20;99.90;;;;;;4992894;28;20427;-52
2022/07/06 10:02:03;;;;;;;3.63;1.63;;;19.50;99.90;;;;;;4990487;28;20506;-53
2022/07/06 10:04:29;;;;;;;0.90;0.80;;;20.30;99.90;;;;;;4974993;28;20456;-53
2022/07/06 10:06:56;;;;;;;1.60;0.90;;;20.70;99.90;;;;;;4983605;28;20449;-58
2022/07/06 10:09:23;;;;;;;7.17;1.13;;;21.20;99.90;;;;;;4992635;28;20442;-59
2022/07/06 10:11:58;;;;;;;1.33;0.87;;;21.20;99.90;;;;;;4993048;28;20439;-58
2022/07/06 10:14:27;;;;;;;3.33;1.03;;;20.40;99.90;;;;;;4994235;28;20881;-57
2022/07/06 10:16:58;;;;;;;3.90;1.13;;;19.60;99.90;;;;;;4992060;28;20497;-57
2022/07/06 10:19:25;;;;;;;1.63;1.40;;;19.00;99.90;;;;;;4982004;28;20449;-58
2022/07/06 10:21:51;;;;;;;3.97;1.27;;;18.10;99.90;;;;;;4992772;28;20497;-58
2022/07/06 10:24:19;;;;;;;1.53;1.00;;;17.40;99.90;;;;;;4989590;28;22057;-58
2022/07/06 10:26:46;;;;;;;3.17;1.20;;;16.80;99.90;;;;;;4976518;28;21181;-58
2022/07/06 10:29:12;;;;;;;1.17;0.90;;;16.20;99.90;;;;;;4993122;28;20519;-58
2022/07/06 10:31:44;;;;;;;2.77;0.90;;;15.90;99.90;;;;;;4976914;28;20443;-58
2022/07/06 10:34:12;;;;;;;2.33;1.13;;;15.60;99.90;;;;;;4978551;28;20648;-56
2022/07/06 10:36:39;;;;;;;3.03;1.10;;;15.30;99.90;;;;;;4993133;28;20447;-56
2022/07/06 10:41:02;;;;;;;4.40;1.10;;;15.10;99.90;;;;;;4989683;28;20471;-58
2022/07/06 10:41:52;;;;;;;2.50;0.90;;;14.90;99.90;;;;;;4993574;28;20416;-56
2022/07/06 10:44:27;;;;;;;1.90;0.87;;;14.90;99.90;;;;;;4992567;28;20918;-58
2022/07/06 10:46:56;;;;;;;2.13;1.00;;;14.80;99.90;;;;;;4993490;28;20403;-58
2022/07/06 10:49:23;;;;;;;3.70;0.97;;;14.80;99.90;;;;;;4989445;28;20809;-62
2022/07/06 10:51:49;;;;;;;3.87;1.13;;;14.80;99.90;;;;;;4975556;28;20439;-57
2022/07/06 10:54:17;;;;;;;3.83;1.13;;;15.00;99.90;;;;;;4975903;28;20820;-57
2022/07/06 10:56:45;;;;;;;1.50;1.03;;;15.20;99.90;;;;;;4993365;28;20498;-58
2022/07/06 10:59:21;;;;;;;4.77;1.30;;;15.50;99.90;;;;;;4992659;28;20790;-58
2022/07/06 11:02:13;;;;;;;3.17;1.30;;;15.70;99.90;;;;;;4976784;28;20447;-58
2022/07/06 11:04:40;;;;;;;3.00;1.33;;;16.10;99.90;;;;;;4975750;28;20451;-58
2022/07/06 11:07:16;;;;;;;4.87;1.50;;;16.40;99.90;;;;;;4973511;28;20412;-56
2022/07/06 11:09:57;;;;;;;3.00;1.30;;;16.70;99.90;;;;;;4976624;28;20936;-58
2022/07/06 11:12:23;;;;;;;2.33;1.30;;;18.00;99.90;;;;;;4993396;28;20407;-58
2022/07/06 11:14:51;;;;;;;8.53;1.40;;;19.20;99.90;;;;;;4971835;28;20946;-58
2022/07/06 11:17:17;;;;;;;4.03;1.10;;;19.70;99.90;;;;;;4991479;28;20443;-58
2022/07/06 11:20:10;;;;;;;2.30;1.10;;;19.80;99.90;;;;;;4991853;28;20450;-58
2022/07/06 11:22:37;;;;;;;2.50;1.10;;;19.80;99.90;;;;;;4988522;28;20510;-59
2022/07/06 11:25:04;;;;;;;3.43;1.00;;;20.10;99.90;;;;;;4981189;28;20494;-57
2022/07/06 11:27:31;;;;;;;2.90;1.00;;;20.70;99.90;;;;;;4973261;28;20412;-58
2022/07/06 11:29:57;;;;;;;3.53;1.10;;;20.90;99.90;;;;;;4987725;28;20469;-58
2022/07/06 11:32:28;;;;;;;2.83;1.00;;;20.60;99.90;;;;;;4976510;28;20859;-57
2022/07/06 11:34:54;;;;;;;2.70;1.10;;;19.90;99.90;;;;;;4978775;28;20238;-58
2022/07/06 11:37:20;;;;;;;1.40;0.90;;;19.50;99.90;;;;;;4992484;28;20416;-58
2022/07/06 11:39:47;;;;;;;4.13;1.00;;;19.00;99.90;;;;;;4991981;28;20556;-57
2022/07/06 11:42:15;;;;;;;2.80;1.07;;;18.60;99.90;;;;;;4992529;28;20403;-59
2022/07/06 11:44:41;;;;;;;3.83;1.00;;;18.30;99.90;;;;;;4989180;28;20530;-58
2022/07/06 11:47:09;;;;;;;5.13;1.37;;;18.10;99.90;;;;;;4983081;28;20417;-58
2022/07/06 11:49:36;;;;;;;6.13;1.23;;;18.10;99.90;;;;;;4979394;28;21169;-58
2022/07/06 11:52:10;;;;;;;3.67;1.10;;;18.60;99.90;;;;;;4988665;28;20455;-57
2022/07/06 11:54:36;;;;;;;5.90;1.20;;;19.20;99.90;;;;;;4988192;28;20594;-58
2022/07/06 11:57:03;;;;;;;2.30;0.93;;;20.10;99.90;;;;;;4999192;28;20913;-58
2022/07/06 11:59:34;;;;;;;4.83;1.13;;;21.20;99.90;;;;;;5011780;28;20417;-59
2022/07/06 12:02:10;;;;;;;3.53;1.20;;;22.40;99.90;;;;;;5011767;28;20453;-57
2022/07/06 12:04:43;;;;;;;7.73;1.17;;;23.40;99.90;;;;;;4990685;28;20463;-59
2022/07/06 12:07:15;;;;;;;3.20;1.00;;;24.00;99.90;;;;;;4991972;28;20397;-58
2022/07/06 12:09:44;;;;;;;4.50;1.10;;;24.40;99.90;;;;;;4998449;28;20539;-58
2022/07/06 12:12:11;;;;;;;5.73;1.00;;;24.70;99.90;;;;;;4984998;28;20436;-55
2022/07/06 12:14:38;;;;;;;4.13;1.20;;;25.00;99.90;;;;;;4990659;28;20469;-54
2022/07/06 12:17:06;;;;;;;1.70;0.83;;;24.30;99.90;;;;;;4991866;28;20840;-56
2022/07/06 12:19:33;;;;;;;2.20;0.80;;;23.70;99.90;;;;;;4991257;28;20415;-57
2022/07/06 12:22:01;;;;;;;1.67;0.90;;;23.80;99.90;;;;;;4988276;28;21957;-54
2022/07/06 12:24:30;;;;;;;2.40;0.80;;;24.50;99.90;;;;;;4995052;28;20463;-56
2022/07/06 12:26:55;;;;;;;6.10;1.00;;;25.20;99.90;;;;;;4996782;28;20419;-57
2022/07/06 12:29:22;;;;;;;1.10;0.80;;;24.90;99.90;;;;;;4999113;28;20449;-55
2022/07/06 12:31:54;;;;;;;4.83;0.80;;;24.00;99.90;;;;;;5011126;28;20176;-57
2022/07/06 12:34:25;;;;;;;1.60;0.80;;;23.00;99.90;;;;;;5008755;28;20497;-56
2022/07/06 12:37:05;;;;;;;4.00;0.90;;;22.20;99.90;;;;;;5005500;28;20821;-55
2022/07/06 12:39:32;;;;;;;5.40;0.83;;;21.60;99.90;;;;;;4990447;28;20452;-56
2022/07/06 12:42:03;;;;;;;6.20;0.90;;;21.30;99.90;;;;;;4990572;28;20526;-56
2022/07/06 12:44:29;;;;;;;3.67;1.07;;;22.00;99.90;;;;;;4988382;28;20545;-56
2022/07/06 12:47:06;;;;;;;3.63;0.90;;;22.80;99.90;;;;;;4989451;28;20518;-57
2022/07/06 12:49:33;;;;;;;3.97;0.90;;;22.50;99.90;;;;;;4987818;28;20415;-57